sensor_id;sensor_type;location;lat;lon;timestamp;pressure;altitude;pressure_sealevel;temperature;humidity
4981;BME280;2507;50.392;7.482;2024-01-30T00:00:22;102124.63;;;5.81;75.56
4981;BME280;2507;50.392;7.482;2024-01-30T00:02:47;102133.31;;;5.81;75.66
4981;BME280;2507;50.392;7.482;2024-01-30T00:05:13;102121.97;;;5.85;74.97
4981;BME280;2507;50.392;7.482;2024-01-30T00:07:38;102129.84;;;5.81;75.56
4981;BME280;2507;50.392;7.482;2024-01-30T00:10:04;102129.97;;;5.76;74.97
4981;BME280;2507;50.392;7.482;2024-01-30T00:12:31;102133.56;;;5.72;75.65
4981;BME280;2507;50.392;7.482;2024-01-30T00:14:57;102122.19;;;5.75;75.76
4981;BME280;2507;50.392;7.482;2024-01-30T00:17:23;102141.22;;;5.77;75.59
4981;BME280;2507;50.392;7.482;2024-01-30T00:19:50;102132.50;;;5.79;75.37
4981;BME280;2507;50.392;7.482;2024-01-30T00:22:15;102135.00;;;5.82;75.59
4981;BME280;2507;50.392;7.482;2024-01-30T00:24:41;102129.88;;;5.79;74.75
4981;BME280;2507;50.392;7.482;2024-01-30T00:27:06;102138.56;;;5.80;74.77
4981;BME280;2507;50.392;7.482;2024-01-30T00:29:31;102135.63;;;5.60;73.85
4981;BME280;2507;50.392;7.482;2024-01-30T00:31:58;102136.22;;;5.36;74.60
4981;BME280;2507;50.392;7.482;2024-01-30T00:34:24;102139.16;;;5.24;75.65
4981;BME280;2507;50.392;7.482;2024-01-30T00:36:49;102131.91;;;5.35;75.92
4981;BME280;2507;50.392;7.482;2024-01-30T00:39:14;102137.09;;;5.35;75.27
4981;BME280;2507;50.392;7.482;2024-01-30T00:41:41;102133.72;;;5.33;75.13
4981;BME280;2507;50.392;7.482;2024-01-30T00:44:06;102144.13;;;5.33;75.06
4981;BME280;2507;50.392;7.482;2024-01-30T00:46:31;102141.53;;;5.33;75.38
4981;BME280;2507;50.392;7.482;2024-01-30T00:48:57;102137.09;;;5.35;75.37
4981;BME280;2507;50.392;7.482;2024-01-30T00:51:22;102138.84;;;5.36;75.43
4981;BME280;2507;50.392;7.482;2024-01-30T00:53:47;102130.94;;;5.39;75.03
4981;BME280;2507;50.392;7.482;2024-01-30T00:56:13;102123.41;;;5.28;75.04
4981;BME280;2507;50.392;7.482;2024-01-30T00:58:38;102120.94;;;5.22;74.68
4981;BME280;2507;50.392;7.482;2024-01-30T01:01:04;102122.84;;;5.15;75.54
4981;BME280;2507;50.392;7.482;2024-01-30T01:03:29;102122.03;;;5.13;75.79
4981;BME280;2507;50.392;7.482;2024-01-30T01:05:54;102115.69;;;5.25;76.51
4981;BME280;2507;50.392;7.482;2024-01-30T01:08:20;102108.84;;;5.55;75.29
4981;BME280;2507;50.392;7.482;2024-01-30T01:10:45;102113.53;;;5.41;74.66
4981;BME280;2507;50.392;7.482;2024-01-30T01:13:10;102117.97;;;5.02;75.28
4981;BME280;2507;50.392;7.482;2024-01-30T01:15:36;102112.72;;;4.67;76.71
4981;BME280;2507;50.392;7.482;2024-01-30T01:18:02;102117.34;;;4.53;76.24
4981;BME280;2507;50.392;7.482;2024-01-30T01:20:27;102121.22;;;4.35;75.92
4981;BME280;2507;50.392;7.482;2024-01-30T01:22:52;102117.28;;;4.16;75.73
4981;BME280;2507;50.392;7.482;2024-01-30T01:25:18;102119.47;;;3.93;77.12
4981;BME280;2507;50.392;7.482;2024-01-30T01:27:43;102136.81;;;3.91;77.50
4981;BME280;2507;50.392;7.482;2024-01-30T01:30:10;102130.81;;;3.89;78.62
4981;BME280;2507;50.392;7.482;2024-01-30T01:32:36;102122.78;;;4.01;78.59
4981;BME280;2507;50.392;7.482;2024-01-30T01:35:03;102121.56;;;4.18;78.27
4981;BME280;2507;50.392;7.482;2024-01-30T01:37:30;102126.53;;;4.29;77.63
4981;BME280;2507;50.392;7.482;2024-01-30T01:39:56;102128.28;;;4.29;76.43
4981;BME280;2507;50.392;7.482;2024-01-30T01:42:21;102122.97;;;4.33;76.93
4981;BME280;2507;50.392;7.482;2024-01-30T01:44:47;102124.56;;;4.42;76.84
4981;BME280;2507;50.392;7.482;2024-01-30T01:47:12;102121.16;;;4.38;76.57
4981;BME280;2507;50.392;7.482;2024-01-30T01:49:38;102120.47;;;4.30;77.38
4981;BME280;2507;50.392;7.482;2024-01-30T01:52:04;102114.47;;;4.27;77.59
4981;BME280;2507;50.392;7.482;2024-01-30T01:54:29;102120.50;;;4.29;77.91
4981;BME280;2507;50.392;7.482;2024-01-30T01:56:55;102112.63;;;4.32;79.83
4981;BME280;2507;50.392;7.482;2024-01-30T01:59:22;102108.78;;;4.49;79.59
4981;BME280;2507;50.392;7.482;2024-01-30T02:01:48;102117.22;;;4.59;79.17
4981;BME280;2507;50.392;7.482;2024-01-30T02:04:14;102114.44;;;4.68;79.00
4981;BME280;2507;50.392;7.482;2024-01-30T02:06:40;102115.16;;;4.73;78.67
4981;BME280;2507;50.392;7.482;2024-01-30T02:09:05;102116.63;;;4.86;77.65
4981;BME280;2507;50.392;7.482;2024-01-30T02:11:31;102111.63;;;4.77;77.38
4981;BME280;2507;50.392;7.482;2024-01-30T02:13:56;102115.00;;;4.80;77.46
4981;BME280;2507;50.392;7.482;2024-01-30T02:16:22;102116.97;;;4.71;77.21
4981;BME280;2507;50.392;7.482;2024-01-30T02:18:47;102117.06;;;4.66;77.12
4981;BME280;2507;50.392;7.482;2024-01-30T02:21:16;102119.66;;;4.66;77.24
4981;BME280;2507;50.392;7.482;2024-01-30T02:23:44;102116.38;;;4.58;77.96
4981;BME280;2507;50.392;7.482;2024-01-30T02:26:10;102118.16;;;4.56;77.70
4981;BME280;2507;50.392;7.482;2024-01-30T02:28:36;102113.22;;;4.44;78.43
4981;BME280;2507;50.392;7.482;2024-01-30T02:31:01;102115.50;;;4.20;77.22
4981;BME280;2507;50.392;7.482;2024-01-30T02:33:26;102124.81;;;3.84;77.15
4981;BME280;2507;50.392;7.482;2024-01-30T02:35:52;102119.88;;;3.72;78.21
4981;BME280;2507;50.392;7.482;2024-01-30T02:38:17;102121.81;;;3.61;78.99
4981;BME280;2507;50.392;7.482;2024-01-30T02:40:42;102112.03;;;3.75;78.56
4981;BME280;2507;50.392;7.482;2024-01-30T02:43:07;102110.16;;;3.83;78.27
4981;BME280;2507;50.392;7.482;2024-01-30T02:45:33;102116.22;;;3.82;77.69
4981;BME280;2507;50.392;7.482;2024-01-30T02:47:58;102115.25;;;3.89;77.46
4981;BME280;2507;50.392;7.482;2024-01-30T02:50:23;102119.63;;;3.84;77.46
4981;BME280;2507;50.392;7.482;2024-01-30T02:52:49;102115.44;;;3.77;78.39
4981;BME280;2507;50.392;7.482;2024-01-30T02:55:14;102116.16;;;3.85;79.27
4981;BME280;2507;50.392;7.482;2024-01-30T02:57:42;102110.69;;;4.00;78.62
4981;BME280;2507;50.392;7.482;2024-01-30T03:00:08;102100.31;;;4.00;78.09
4981;BME280;2507;50.392;7.482;2024-01-30T03:02:35;102110.72;;;3.97;77.73
4981;BME280;2507;50.392;7.482;2024-01-30T03:05:00;102105.50;;;4.00;77.52
4981;BME280;2507;50.392;7.482;2024-01-30T03:07:26;102104.59;;;4.01;77.20
4981;BME280;2507;50.392;7.482;2024-01-30T03:09:51;102097.69;;;4.01;77.37
4981;BME280;2507;50.392;7.482;2024-01-30T03:12:16;102096.03;;;3.97;77.22
4981;BME280;2507;50.392;7.482;2024-01-30T03:14:41;102097.03;;;3.90;77.32
4981;BME280;2507;50.392;7.482;2024-01-30T03:17:07;102098.00;;;3.85;77.56
4981;BME280;2507;50.392;7.482;2024-01-30T03:19:32;102102.28;;;3.86;77.72
4981;BME280;2507;50.392;7.482;2024-01-30T03:21:58;102102.06;;;3.96;77.61
4981;BME280;2507;50.392;7.482;2024-01-30T03:24:23;102107.19;;;4.01;77.75
4981;BME280;2507;50.392;7.482;2024-01-30T03:26:49;102102.91;;;4.00;77.08
4981;BME280;2507;50.392;7.482;2024-01-30T03:29:14;102105.44;;;4.03;77.24
4981;BME280;2507;50.392;7.482;2024-01-30T03:31:39;102109.78;;;4.01;77.17
4981;BME280;2507;50.392;7.482;2024-01-30T03:34:04;102097.63;;;4.03;77.14
4981;BME280;2507;50.392;7.482;2024-01-30T03:36:30;102095.88;;;4.05;76.73
4981;BME280;2507;50.392;7.482;2024-01-30T03:38:58;102092.34;;;4.07;76.50
4981;BME280;2507;50.392;7.482;2024-01-30T03:41:23;102097.53;;;4.07;76.33
4981;BME280;2507;50.392;7.482;2024-01-30T03:43:48;102096.75;;;4.04;76.74
4981;BME280;2507;50.392;7.482;2024-01-30T03:46:14;102093.13;;;4.11;77.29
4981;BME280;2507;50.392;7.482;2024-01-30T03:48:39;102091.47;;;4.08;77.68
4981;BME280;2507;50.392;7.482;2024-01-30T03:51:05;102092.41;;;4.04;77.05
4981;BME280;2507;50.392;7.482;2024-01-30T03:53:30;102086.44;;;4.01;77.18
4981;BME280;2507;50.392;7.482;2024-01-30T03:55:56;102084.53;;;4.07;77.30
4981;BME280;2507;50.392;7.482;2024-01-30T03:58:21;102093.28;;;4.05;77.23
4981;BME280;2507;50.392;7.482;2024-01-30T04:00:46;102092.41;;;4.04;77.15
4981;BME280;2507;50.392;7.482;2024-01-30T04:03:12;102092.41;;;4.04;77.23
4981;BME280;2507;50.392;7.482;2024-01-30T04:05:37;102096.63;;;4.10;76.69
4981;BME280;2507;50.392;7.482;2024-01-30T04:08:02;102095.03;;;4.03;76.54
4981;BME280;2507;50.392;7.482;2024-01-30T04:10:27;102087.16;;;4.07;76.42
4981;BME280;2507;50.392;7.482;2024-01-30T04:12:53;102094.25;;;3.99;75.79
4981;BME280;2507;50.392;7.482;2024-01-30T04:15:19;102099.59;;;3.92;75.86
4981;BME280;2507;50.392;7.482;2024-01-30T04:17:44;102098.69;;;3.94;75.78
4981;BME280;2507;50.392;7.482;2024-01-30T04:20:16;102096.97;;;3.93;76.43
4981;BME280;2507;50.392;7.482;2024-01-30T04:22:43;102092.63;;;3.94;76.25
4981;BME280;2507;50.392;7.482;2024-01-30T04:25:09;102097.06;;;3.87;76.38
4981;BME280;2507;50.392;7.482;2024-01-30T04:27:34;102090.25;;;3.83;76.58
4981;BME280;2507;50.392;7.482;2024-01-30T04:29:59;102091.06;;;3.85;77.15
4981;BME280;2507;50.392;7.482;2024-01-30T04:32:25;102090.13;;;3.88;76.90
4981;BME280;2507;50.392;7.482;2024-01-30T04:34:50;102088.41;;;3.88;77.60
4981;BME280;2507;50.392;7.482;2024-01-30T04:37:15;102090.09;;;3.89;77.12
4981;BME280;2507;50.392;7.482;2024-01-30T04:39:40;102090.09;;;3.44;75.48
4981;BME280;2507;50.392;7.482;2024-01-30T04:42:06;102098.50;;;3.09;77.15
4981;BME280;2507;50.392;7.482;2024-01-30T04:44:31;102101.25;;;3.00;77.69
4981;BME280;2507;50.392;7.482;2024-01-30T04:46:56;102093.16;;;3.18;78.28
4981;BME280;2507;50.392;7.482;2024-01-30T04:49:24;102093.81;;;3.31;77.19
4981;BME280;2507;50.392;7.482;2024-01-30T04:51:49;102092.91;;;3.32;77.48
4981;BME280;2507;50.392;7.482;2024-01-30T04:54:14;102097.19;;;3.36;77.14
4981;BME280;2507;50.392;7.482;2024-01-30T04:56:39;102095.28;;;3.44;76.75
4981;BME280;2507;50.392;7.482;2024-01-30T04:59:05;102099.59;;;3.45;76.38
4981;BME280;2507;50.392;7.482;2024-01-30T05:01:30;102093.59;;;3.43;76.53
4981;BME280;2507;50.392;7.482;2024-01-30T05:03:55;102097.03;;;3.43;76.91
4981;BME280;2507;50.392;7.482;2024-01-30T05:06:25;102093.25;;;3.61;77.00
4981;BME280;2507;50.392;7.482;2024-01-30T05:08:50;102091.19;;;3.79;76.23
4981;BME280;2507;50.392;7.482;2024-01-30T05:11:16;102086.63;;;3.90;75.83
4981;BME280;2507;50.392;7.482;2024-01-30T05:13:41;102079.56;;;3.97;75.42
4981;BME280;2507;50.392;7.482;2024-01-30T05:16:06;102084.69;;;4.01;75.49
4981;BME280;2507;50.392;7.482;2024-01-30T05:18:32;102084.66;;;4.03;75.51
4981;BME280;2507;50.392;7.482;2024-01-30T05:20:57;102086.50;;;3.96;75.81
4981;BME280;2507;50.392;7.482;2024-01-30T05:23:22;102087.59;;;3.86;77.02
4981;BME280;2507;50.392;7.482;2024-01-30T05:25:47;102079.75;;;3.88;77.39
4981;BME280;2507;50.392;7.482;2024-01-30T05:28:12;102081.34;;;3.95;77.31
4981;BME280;2507;50.392;7.482;2024-01-30T05:30:39;102083.78;;;4.02;77.02
4981;BME280;2507;50.392;7.482;2024-01-30T05:33:04;102080.19;;;4.09;76.30
4981;BME280;2507;50.392;7.482;2024-01-30T05:35:29;102083.91;;;3.96;76.68
4981;BME280;2507;50.392;7.482;2024-01-30T05:37:55;102085.63;;;3.97;77.24
4981;BME280;2507;50.392;7.482;2024-01-30T05:40:20;102085.41;;;4.08;77.27
4981;BME280;2507;50.392;7.482;2024-01-30T05:42:45;102086.13;;;4.16;77.41
4981;BME280;2507;50.392;7.482;2024-01-30T05:45:10;102083.53;;;4.16;77.79
4981;BME280;2507;50.392;7.482;2024-01-30T05:47:35;102091.31;;;4.16;77.13
4981;BME280;2507;50.392;7.482;2024-01-30T05:50:01;102091.25;;;4.19;77.32
4981;BME280;2507;50.392;7.482;2024-01-30T05:52:26;102083.25;;;4.28;77.52
4981;BME280;2507;50.392;7.482;2024-01-30T05:54:51;102085.13;;;4.22;77.24
4981;BME280;2507;50.392;7.482;2024-01-30T05:57:17;102085.00;;;4.28;77.40
4981;BME280;2507;50.392;7.482;2024-01-30T05:59:42;102069.38;;;4.29;77.14
4981;BME280;2507;50.392;7.482;2024-01-30T06:02:10;102079.59;;;4.37;77.42
4981;BME280;2507;50.392;7.482;2024-01-30T06:04:35;102074.56;;;4.31;76.77
4981;BME280;2507;50.392;7.482;2024-01-30T06:07:01;102076.41;;;4.24;75.78
4981;BME280;2507;50.392;7.482;2024-01-30T06:09:27;102086.88;;;4.21;76.48
4981;BME280;2507;50.392;7.482;2024-01-30T06:11:52;102077.16;;;4.31;76.95
4981;BME280;2507;50.392;7.482;2024-01-30T06:14:17;102081.84;;;4.13;76.62
4981;BME280;2507;50.392;7.482;2024-01-30T06:16:42;102081.22;;;4.01;76.66
4981;BME280;2507;50.392;7.482;2024-01-30T06:19:08;102082.84;;;4.06;77.49
4981;BME280;2507;50.392;7.482;2024-01-30T06:21:33;102090.34;;;4.22;77.13
4981;BME280;2507;50.392;7.482;2024-01-30T06:24:01;102078.06;;;4.28;76.60
4981;BME280;2507;50.392;7.482;2024-01-30T06:26:27;102091.16;;;4.24;77.13
4981;BME280;2507;50.392;7.482;2024-01-30T06:28:52;102083.03;;;4.39;76.84
4981;BME280;2507;50.392;7.482;2024-01-30T06:31:17;102081.28;;;4.39;76.40
4981;BME280;2507;50.392;7.482;2024-01-30T06:33:43;102083.03;;;4.39;77.03
4981;BME280;2507;50.392;7.482;2024-01-30T06:36:08;102082.28;;;4.34;77.17
4981;BME280;2507;50.392;7.482;2024-01-30T06:38:33;102082.97;;;4.40;77.26
4981;BME280;2507;50.392;7.482;2024-01-30T06:40:58;102080.38;;;4.40;76.98
4981;BME280;2507;50.392;7.482;2024-01-30T06:43:24;102083.81;;;4.42;77.28
4981;BME280;2507;50.392;7.482;2024-01-30T06:45:49;102092.22;;;4.53;77.51
4981;BME280;2507;50.392;7.482;2024-01-30T06:48:14;102086.16;;;4.54;76.43
4981;BME280;2507;50.392;7.482;2024-01-30T06:50:39;102093.34;;;4.43;76.93
4981;BME280;2507;50.392;7.482;2024-01-30T06:53:05;102088.19;;;4.40;77.83
4981;BME280;2507;50.392;7.482;2024-01-30T06:55:30;102096.53;;;4.56;77.72
4981;BME280;2507;50.392;7.482;2024-01-30T06:57:55;102091.25;;;4.59;77.39
4981;BME280;2507;50.392;7.482;2024-01-30T07:00:20;102093.78;;;4.60;77.54
4981;BME280;2507;50.392;7.482;2024-01-30T07:02:46;102097.38;;;4.55;77.40
4981;BME280;2507;50.392;7.482;2024-01-30T07:05:11;102096.63;;;4.50;77.95
4981;BME280;2507;50.392;7.482;2024-01-30T07:07:37;102096.59;;;4.51;78.25
4981;BME280;2507;50.392;7.482;2024-01-30T07:10:02;102092.63;;;4.73;78.05
4981;BME280;2507;50.392;7.482;2024-01-30T07:12:27;102099.72;;;4.67;77.67
4981;BME280;2507;50.392;7.482;2024-01-30T07:14:53;102102.25;;;4.70;77.54
4981;BME280;2507;50.392;7.482;2024-01-30T07:17:18;102102.22;;;4.71;77.03
4981;BME280;2507;50.392;7.482;2024-01-30T07:19:43;102102.09;;;4.77;77.52
4981;BME280;2507;50.392;7.482;2024-01-30T07:22:09;102098.56;;;4.80;77.97
4981;BME280;2507;50.392;7.482;2024-01-30T07:24:34;102101.97;;;4.83;77.61
4981;BME280;2507;50.392;7.482;2024-01-30T07:26:59;102105.03;;;4.99;78.19
4981;BME280;2507;50.392;7.482;2024-01-30T07:29:24;102104.25;;;4.95;76.77
4981;BME280;2507;50.392;7.482;2024-01-30T07:31:50;102101.53;;;5.01;78.25
4981;BME280;2507;50.392;7.482;2024-01-30T07:34:15;102113.50;;;5.08;77.39
4981;BME280;2507;50.392;7.482;2024-01-30T07:36:40;102112.53;;;5.12;77.37
4981;BME280;2507;50.392;7.482;2024-01-30T07:39:06;102112.34;;;5.18;76.65
4981;BME280;2507;50.392;7.482;2024-01-30T07:41:31;102102.94;;;5.13;77.34
4981;BME280;2507;50.392;7.482;2024-01-30T07:43:57;102105.41;;;5.19;77.64
4981;BME280;2507;50.392;7.482;2024-01-30T07:46:22;102108.69;;;5.27;77.30
4981;BME280;2507;50.392;7.482;2024-01-30T07:48:47;102106.06;;;5.29;76.74
4981;BME280;2507;50.392;7.482;2024-01-30T07:51:12;102111.16;;;4.96;76.47
4981;BME280;2507;50.392;7.482;2024-01-30T07:53:38;102116.94;;;4.72;76.95
4981;BME280;2507;50.392;7.482;2024-01-30T07:56:03;102117.34;;;4.54;77.44
4981;BME280;2507;50.392;7.482;2024-01-30T07:58:28;102103.97;;;4.33;77.57
4981;BME280;2507;50.392;7.482;2024-01-30T08:00:54;102110.94;;;4.29;78.80
4981;BME280;2507;50.392;7.482;2024-01-30T08:03:21;102105.34;;;4.49;78.51
4981;BME280;2507;50.392;7.482;2024-01-30T08:05:47;102106.66;;;4.66;78.27
4981;BME280;2507;50.392;7.482;2024-01-30T08:08:12;102109.84;;;4.79;78.52
4981;BME280;2507;50.392;7.482;2024-01-30T08:10:37;102114.88;;;4.86;77.59
4981;BME280;2507;50.392;7.482;2024-01-30T08:13:02;102122.81;;;4.80;77.67
4981;BME280;2507;50.392;7.482;2024-01-30T08:15:28;102117.44;;;4.88;77.94
4981;BME280;2507;50.392;7.482;2024-01-30T08:17:53;102128.53;;;4.96;77.78
4981;BME280;2507;50.392;7.482;2024-01-30T08:20:25;102141.50;;;4.97;77.11
4981;BME280;2507;50.392;7.482;2024-01-30T08:22:51;102135.94;;;5.11;76.52
4981;BME280;2507;50.392;7.482;2024-01-30T08:25:17;102130.78;;;5.09;77.07
4981;BME280;2507;50.392;7.482;2024-01-30T08:27:42;102129.84;;;5.13;77.00
4981;BME280;2507;50.392;7.482;2024-01-30T08:30:08;102128.38;;;5.02;75.78
4981;BME280;2507;50.392;7.482;2024-01-30T08:32:33;102132.88;;;4.95;77.02
4981;BME280;2507;50.392;7.482;2024-01-30T08:34:59;102140.59;;;4.98;76.79
4981;BME280;2507;50.392;7.482;2024-01-30T08:37:25;102141.34;;;5.03;76.52
4981;BME280;2507;50.392;7.482;2024-01-30T08:39:50;102142.75;;;5.18;76.11
4981;BME280;2507;50.392;7.482;2024-01-30T08:42:15;102139.75;;;5.33;75.95
4981;BME280;2507;50.392;7.482;2024-01-30T08:44:43;102142.09;;;5.44;75.19
4981;BME280;2507;50.392;7.482;2024-01-30T08:47:08;102134.19;;;5.48;73.37
4981;BME280;2507;50.392;7.482;2024-01-30T08:49:34;102119.88;;;5.31;73.90
4981;BME280;2507;50.392;7.482;2024-01-30T08:51:59;102112.69;;;5.40;75.04
4981;BME280;2507;50.392;7.482;2024-01-30T08:54:24;102115.28;;;5.74;74.84
4981;BME280;2507;50.392;7.482;2024-01-30T08:56:49;102114.56;;;5.69;73.63
4981;BME280;2507;50.392;7.482;2024-01-30T08:59:15;102118.94;;;5.67;73.17
4981;BME280;2507;50.392;7.482;2024-01-30T09:01:40;102116.50;;;5.61;73.79
4981;BME280;2507;50.392;7.482;2024-01-30T09:04:05;102111.63;;;5.81;73.12
4981;BME280;2507;50.392;7.482;2024-01-30T09:06:30;102108.75;;;5.91;73.25
4981;BME280;2507;50.392;7.482;2024-01-30T09:08:56;102111.16;;;5.99;71.81
4981;BME280;2507;50.392;7.482;2024-01-30T09:11:23;102107.94;;;5.89;72.76
4981;BME280;2507;50.392;7.482;2024-01-30T09:13:48;102106.75;;;6.01;72.17
4981;BME280;2507;50.392;7.482;2024-01-30T09:16:13;102105.38;;;5.88;72.03
4981;BME280;2507;50.392;7.482;2024-01-30T09:18:38;102123.00;;;5.77;72.80
4981;BME280;2507;50.392;7.482;2024-01-30T09:21:04;102118.31;;;5.91;73.34
4981;BME280;2507;50.392;7.482;2024-01-30T09:23:29;102122.16;;;6.08;73.38
4981;BME280;2507;50.392;7.482;2024-01-30T09:25:55;102120.16;;;6.18;72.66
4981;BME280;2507;50.392;7.482;2024-01-30T09:28:20;102111.72;;;6.39;72.56
4981;BME280;2507;50.392;7.482;2024-01-30T09:30:46;102114.19;;;6.44;72.50
4981;BME280;2507;50.392;7.482;2024-01-30T09:33:11;102108.66;;;6.54;71.02
4981;BME280;2507;50.392;7.482;2024-01-30T09:35:36;102110.09;;;6.35;71.46
4981;BME280;2507;50.392;7.482;2024-01-30T09:38:02;102125.13;;;5.95;72.24
4981;BME280;2507;50.392;7.482;2024-01-30T09:40:27;102141.31;;;5.74;74.59
4981;BME280;2507;50.392;7.482;2024-01-30T09:42:53;102134.47;;;6.03;75.75
4981;BME280;2507;50.392;7.482;2024-01-30T09:45:19;102141.25;;;6.40;73.91
4981;BME280;2507;50.392;7.482;2024-01-30T09:47:45;102140.41;;;6.39;73.10
4981;BME280;2507;50.392;7.482;2024-01-30T09:50:14;102146.75;;;6.29;74.21
4981;BME280;2507;50.392;7.482;2024-01-30T09:52:40;102126.66;;;6.63;74.73
4981;BME280;2507;50.392;7.482;2024-01-30T09:55:06;102126.41;;;6.98;72.45
4981;BME280;2507;50.392;7.482;2024-01-30T09:57:32;102126.31;;;7.28;70.86
4981;BME280;2507;50.392;7.482;2024-01-30T09:59:57;102131.06;;;7.67;69.22
4981;BME280;2507;50.392;7.482;2024-01-30T10:02:23;102123.50;;;7.84;68.05
4981;BME280;2507;50.392;7.482;2024-01-30T10:04:50;102123.84;;;8.00;69.15
4981;BME280;2507;50.392;7.482;2024-01-30T10:07:17;102112.16;;;8.33;68.03
4981;BME280;2507;50.392;7.482;2024-01-30T10:09:42;102120.94;;;8.32;67.33
4981;BME280;2507;50.392;7.482;2024-01-30T10:12:09;102120.59;;;8.41;67.33
4981;BME280;2507;50.392;7.482;2024-01-30T10:14:37;102115.19;;;8.21;68.28
4981;BME280;2507;50.392;7.482;2024-01-30T10:17:03;102116.16;;;8.43;68.01
4981;BME280;2507;50.392;7.482;2024-01-30T10:19:28;102122.72;;;8.76;66.97
4981;BME280;2507;50.392;7.482;2024-01-30T10:21:53;102124.25;;;9.03;67.26
4981;BME280;2507;50.392;7.482;2024-01-30T10:24:23;102115.09;;;9.13;66.85
4981;BME280;2507;50.392;7.482;2024-01-30T10:26:49;102120.63;;;9.06;67.03
4981;BME280;2507;50.392;7.482;2024-01-30T10:29:14;102130.44;;;9.22;66.98
4981;BME280;2507;50.392;7.482;2024-01-30T10:31:40;102118.53;;;9.36;66.41
4981;BME280;2507;50.392;7.482;2024-01-30T10:34:05;102131.53;;;9.59;66.24
4981;BME280;2507;50.392;7.482;2024-01-30T10:36:32;102135.66;;;9.64;66.68
4981;BME280;2507;50.392;7.482;2024-01-30T10:39:02;102129.16;;;9.93;66.92
4981;BME280;2507;50.392;7.482;2024-01-30T10:41:30;102129.13;;;10.33;65.65
4981;BME280;2507;50.392;7.482;2024-01-30T10:44:14;102121.69;;;10.43;65.84
4981;BME280;2507;50.392;7.482;2024-01-30T10:46:45;102132.34;;;10.58;65.09
4981;BME280;2507;50.392;7.482;2024-01-30T10:49:14;102121.69;;;10.43;65.43
4981;BME280;2507;50.392;7.482;2024-01-30T10:51:40;102121.34;;;10.69;65.79
4981;BME280;2507;50.392;7.482;2024-01-30T10:54:06;102133.03;;;10.99;64.47
4981;BME280;2507;50.392;7.482;2024-01-30T10:56:32;102130.13;;;11.22;64.24
4981;BME280;2507;50.392;7.482;2024-01-30T10:58:58;102127.16;;;11.47;63.20
4981;BME280;2507;50.392;7.482;2024-01-30T11:01:25;102123.00;;;11.77;63.45
4981;BME280;2507;50.392;7.482;2024-01-30T11:03:54;102119.28;;;11.98;61.17
4981;BME280;2507;50.392;7.482;2024-01-30T11:06:27;102125.84;;;12.22;61.20
4981;BME280;2507;50.392;7.482;2024-01-30T11:09:03;102121.53;;;12.21;59.80
4981;BME280;2507;50.392;7.482;2024-01-30T11:11:29;102126.34;;;12.13;60.36
4981;BME280;2507;50.392;7.482;2024-01-30T11:13:54;102123.47;;;12.17;60.07
4981;BME280;2507;50.392;7.482;2024-01-30T11:16:20;102118.78;;;12.07;59.62
4981;BME280;2507;50.392;7.482;2024-01-30T11:18:50;102120.25;;;12.12;59.96
4981;BME280;2507;50.392;7.482;2024-01-30T11:21:16;102113.47;;;12.24;60.92
4981;BME280;2507;50.392;7.482;2024-01-30T11:23:42;102118.22;;;12.17;60.76
4981;BME280;2507;50.392;7.482;2024-01-30T11:26:10;102102.63;;;12.30;60.53
4981;BME280;2507;50.392;7.482;2024-01-30T11:28:37;102108.44;;;12.52;60.70
4981;BME280;2507;50.392;7.482;2024-01-30T11:31:04;102102.03;;;13.18;59.13
4981;BME280;2507;50.392;7.482;2024-01-30T11:33:30;102097.97;;;13.43;58.30
4981;BME280;2507;50.392;7.482;2024-01-30T11:35:57;102088.44;;;13.40;57.45
4981;BME280;2507;50.392;7.482;2024-01-30T11:38:25;102081.16;;;13.29;58.03
4981;BME280;2507;50.392;7.482;2024-01-30T11:40:51;102071.44;;;13.00;58.84
4981;BME280;2507;50.392;7.482;2024-01-30T11:43:16;102064.22;;;12.88;59.81
4981;BME280;2507;50.392;7.482;2024-01-30T11:45:42;102069.34;;;13.07;59.58
4981;BME280;2507;50.392;7.482;2024-01-30T11:48:11;102078.31;;;13.18;59.54
4981;BME280;2507;50.392;7.482;2024-01-30T11:50:37;102064.56;;;13.13;58.65
4981;BME280;2507;50.392;7.482;2024-01-30T11:53:04;102048.97;;;13.24;58.18
4981;BME280;2507;50.392;7.482;2024-01-30T11:55:30;102043.25;;;13.32;57.20
4981;BME280;2507;50.392;7.482;2024-01-30T11:57:56;102044.63;;;13.23;56.71
4981;BME280;2507;50.392;7.482;2024-01-30T12:00:22;102044.63;;;13.23;57.17
4981;BME280;2507;50.392;7.482;2024-01-30T12:02:54;102038.84;;;13.17;56.81
4981;BME280;2507;50.392;7.482;2024-01-30T12:05:23;102039.16;;;13.12;56.94
4981;BME280;2507;50.392;7.482;2024-01-30T12:07:48;102046.41;;;13.23;57.14
4981;BME280;2507;50.392;7.482;2024-01-30T12:10:14;102035.81;;;13.39;56.47
4981;BME280;2507;50.392;7.482;2024-01-30T12:12:41;102041.84;;;13.55;56.26
4981;BME280;2507;50.392;7.482;2024-01-30T12:15:08;102024.91;;;13.59;55.77
4981;BME280;2507;50.392;7.482;2024-01-30T12:17:34;102034.59;;;13.58;55.78
4981;BME280;2507;50.392;7.482;2024-01-30T12:20:10;102030.75;;;13.50;55.67
4981;BME280;2507;50.392;7.482;2024-01-30T12:22:40;102022.34;;;13.29;56.45
4981;BME280;2507;50.392;7.482;2024-01-30T12:25:13;102043.13;;;13.19;56.53
4981;BME280;2507;50.392;7.482;2024-01-30T12:27:40;102041.09;;;13.09;57.08
4981;BME280;2507;50.392;7.482;2024-01-30T12:30:08;102031.41;;;13.09;57.14
4981;BME280;2507;50.392;7.482;2024-01-30T12:32:40;102038.88;;;13.01;57.16
4981;BME280;2507;50.392;7.482;2024-01-30T12:35:16;102052.38;;;13.11;57.12
4981;BME280;2507;50.392;7.482;2024-01-30T12:37:43;102043.56;;;13.12;56.80
4981;BME280;2507;50.392;7.482;2024-01-30T12:40:09;102048.31;;;13.05;57.21
4981;BME280;2507;50.392;7.482;2024-01-30T12:42:36;102042.88;;;12.93;57.67
4981;BME280;2507;50.392;7.482;2024-01-30T12:45:05;102048.84;;;12.81;57.80
4981;BME280;2507;50.392;7.482;2024-01-30T12:47:31;102040.63;;;12.87;57.68
4981;BME280;2507;50.392;7.482;2024-01-30T12:49:57;102041.53;;;12.86;57.76
4981;BME280;2507;50.392;7.482;2024-01-30T12:52:23;102047.94;;;12.66;58.23
4981;BME280;2507;50.392;7.482;2024-01-30T12:54:48;102036.38;;;12.53;59.04
4981;BME280;2507;50.392;7.482;2024-01-30T12:57:14;102031.63;;;12.44;59.20
4981;BME280;2507;50.392;7.482;2024-01-30T12:59:39;102032.97;;;12.51;59.17
4981;BME280;2507;50.392;7.482;2024-01-30T13:02:05;102024.25;;;12.51;59.15
4981;BME280;2507;50.392;7.482;2024-01-30T13:04:31;102028.91;;;12.46;59.52
4981;BME280;2507;50.392;7.482;2024-01-30T13:06:57;102036.97;;;12.43;59.69
4981;BME280;2507;50.392;7.482;2024-01-30T13:09:23;102021.97;;;12.45;59.82
4981;BME280;2507;50.392;7.482;2024-01-30T13:11:49;102032.00;;;12.38;59.99